KFNT

Bishop International Airport

Flint, Michigan, USA
METAR KFNT 230153Z 00000KT 10SM CLR 13/12 A3004 RMK AO2 SLP173 T01330122
Observed Flight Rules
May-23 @ 01:53 UTC (59 minutes ago) Visual Flight Rules
Visibility Clouds
10 miles
  • Clear skies
Temperatures Readings
Current 13°C / 55°F
Dewpoint 12°C / 54°F
Humidity 94%
Altimeter 30.04" Hg
Pressure 1017.3 hPa
Elevation 233
METAR KFNT 230153Z 00000KT 10SM CLR 13/12 A3004 RMK AO2 SLP173 T01330122
Observed Flight Rules
May-23 @ 01:53 UTC
(59 minutes ago)
VFR
Clouds
  • Clear skies
Temperature Dewpoint
13°C / 55°F 12°C / 54°F
Humidity Altimeter Pressure
94% 30.04" Hg 1017.3 hPa